Lillian, AL (36549)

1:30 PM CDT on September 01, 2015 (GMT -0500)
Little Creek Subdivision | | Change Station
CLOSE
Current Station
Personal Weather Station
Location: Pensacola, FL
Elevation: 12 ft
Nearby Weather Stations

Elev 12 ft 30.40 °N, 87.38 °W | Updated 19 seconds ago

Mostly Cloudy
Mostly Cloudy
95.0 °F
Feels Like 103 °F
N
2.5
Wind Variable Wind from East
Gusts 4.9 mph

Today
High -- | Low -- °F
--% Chance of Precip.
Yesterday
High -- | Low -- °F
Precip. -- in
6:26 AM 7:12 PM
Waning Gibbous, 87% visible
Pressure 30.06 in
Visibility 10.0 miles
Clouds Scattered Clouds 4000 ft
Mostly Cloudy 25000 ft
Heat Index 103 °F
Dew Point 72 °F
Humidity 47%
Rainfall 0.00 in
Snow Depth Not available.
UV 6 out of 12
Pollen 7.90 out of 12
Air Quality Not available.
Flu Activity Not available.
METAR KNPA 011756Z 16010KT 10SM SCT040 BKN250 33/22 A3005 RMK AO2 SLP178 T03280217 10333 20228 58009
Pressure 30.06 in
Visibility 10.0 miles
Clouds Scattered Clouds 4000 ft
Mostly Cloudy 25000 ft
Heat Index 103 °F
Dew Point 72 °F
Humidity 47%
Rainfall 0.00 in
Snow Depth Not available.
UV 6 out of 12
Pollen 7.90 out of 12
Air Quality Not available.
Flu Activity Not available.
METAR KNPA 011756Z 16010KT 10SM SCT040 BKN250 33/22 A3005 RMK AO2 SLP178 T03280217 10333 20228 58009

10-Day Weather Forecast

×

Almanac

Astronomy

Sep. 01, 2015 Rise Set
Actual Time
Civil Twilight
Nautical Twilight
Astronomical Twilight
Moon
Length of Visible Light
Length of Day
Tomorrow will be .
, % of the Moon is Illuminated

Today's Extremes

State Highs State Lows

Community

WunderPhotos

Upload Photos

1,851,592 photos uploaded!

WunderBlogs® & News

Nearby

Air Quality

  Air Quality AQ Index Pollutant
Not available.

Snow Depth

Station Depth Elevation

Earthquake Activity

City Distance Mag. Time & Date
Minimum magnitude displayed is 2.5.

Coastal Water Temperatures

Place Temperature

Stations

Nearby Weather Stations

Station Location Temp. Windchill Dew Point Humidity Wind Precip. Elev Updated Type